Nippa, Kentucky
Current Conditions -  °F | °C
As of 10:35 PM on Friday 31 Oct 2014 (Local Time) from KSJS Reporting Station
Drizzle Drizzle  
Wind Chill: 31°   Ceiling: 600
Heat Index: 37°   Visibility: 10mi
Dew Point: 36°   Wind: 7mph
Humidity: 97%   Direction: 270°W
Pressure: 29.92"   Gusts: NA
Location:  37.7517°N, 82.9074°W
Report Text: KSJS 010235Z AUTO 27006KT 10SM DZ OVC006 03/02 A2992 RMK AO2 T00250020
Loading
Personal Weather Stations






























Interactive Weather Map
Tropical Storm Tracking
New forecast layout! Learn more

10-Day Weather Forecast

Advertisements
Track Severe Weather on mobile